Innsbruck Airport LOWI

Flugplatz Daten

Name: Innsbruck Airport

Ident: LOWI

Lat: 47,2602005

Long: 11,34399986

Platzhöhe: 1906 ft

IataCode: INN

City: Innsbruck

Metar

2022/08/14 05:20
LOWI 140520Z VRB02KT CAVOK 13/11 Q1014 NOSIG

Taf

2022/08/14 00:06
TAF LOWI 132315Z 1400/1424 27004KT CAVOK TX30/1415Z TN12/1404Z
BECMG 1410/1412 08008KT
BECMG 1418/1420 27004KT

Webcams

Gewünschte Webcam nicht vorhanden? Dann fügen Sie eine hinzu. Sie wird dann so schnell wie möglich freigeschaltet
Url: Title: